Time;durP1;ratioP1;P1;durP2;ratioP2;P2;SDS_P1;SDS_P2;PMS_P1;PMS_P2;Temp;Humidity;BMP_temperature;BMP_pressure;BME280_temperature;BME280_humidity;BME280_pressure;Samples;Min_cycle;Max_cycle;Signal;HPM_P1;HPM_P2
2022/09/29 00:01:14;;;;;;;;;;;;;;;21.65;45.81;99785.31;7284229;19;151682;-57
2022/09/29 00:03:41;;;;;;;;;;;;;;;21.64;45.78;99785.63;7284055;19;153868;-57
2022/09/29 00:06:13;;;;;;;;;;;;;;;21.63;45.59;99778.38;7284727;19;153480;-57
2022/09/29 00:08:43;;;;;;;;;;;;;;;21.62;45.87;99776.75;7284969;19;152302;-58
2022/09/29 00:11:13;;;;;;;;;;;;;;;21.61;46.27;99775.91;7286947;19;153247;-58
2022/09/29 00:13:40;;;;;;;;;;;;;;;21.60;45.84;99782.69;7284223;19;153824;-57
2022/09/29 00:16:08;;;;;;;;;;;;;;;21.60;46.08;99781.88;7285652;19;152069;-58
2022/09/29 00:18:35;;;;;;;;;;;;;;;21.58;45.88;99779.41;7285688;19;152029;-58
2022/09/29 00:21:04;;;;;;;;;;;;;;;21.58;46.41;99767.31;7288405;19;152487;-58
2022/09/29 00:23:42;;;;;;;;;;;;;;;21.58;46.55;99773.78;7285139;19;153146;-58
2022/09/29 00:26:13;;;;;;;;;;;;;;;21.58;46.55;99776.59;7282920;19;154359;-58
2022/09/29 00:29:04;;;;;;;;;;;;;;;21.56;46.73;99776.13;7283574;19;152498;-57
2022/09/29 00:31:44;;;;;;;;;;;;;;;21.57;46.50;99776.94;7286888;19;153012;-58
2022/09/29 00:34:13;;;;;;;;;;;;;;;21.56;46.73;99772.50;7283556;19;153435;-58
2022/09/29 00:36:40;;;;;;;;;;;;;;;21.54;47.00;99764.38;7286206;19;152420;-57
2022/09/29 00:39:11;;;;;;;;;;;;;;;21.52;46.91;99772.38;7285014;19;153655;-58
2022/09/29 00:41:42;;;;;;;;;;;;;;;21.52;47.06;99772.38;7284599;19;153029;-57
2022/09/29 00:44:12;;;;;;;;;;;;;;;21.51;46.91;99776.34;7292114;19;153967;-56
2022/09/29 00:46:45;;;;;;;;;;;;;;;21.51;47.31;99767.91;7284821;19;153535;-56
2022/09/29 00:49:18;;;;;;;;;;;;;;;21.48;47.18;99771.41;7284623;19;152945;-57
2022/09/29 00:51:49;;;;;;;;;;;;;;;21.46;47.46;99770.91;7284256;19;153255;-57
2022/09/29 00:54:16;;;;;;;;;;;;;;;21.47;47.45;99766.13;7283492;19;154516;-57
2022/09/29 00:56:44;;;;;;;;;;;;;;;21.46;47.13;99767.28;7286510;19;151893;-57
2022/09/29 00:59:19;;;;;;;;;;;;;;;21.43;47.50;99757.56;7284668;19;152817;-57
2022/09/29 01:01:45;;;;;;;;;;;;;;;21.43;47.52;99753.94;7281577;19;153614;-57
2022/09/29 01:04:14;;;;;;;;;;;;;;;21.40;47.51;99766.66;7284173;19;152880;-57
2022/09/29 01:06:44;;;;;;;;;;;;;;;21.39;47.63;99761.41;7289324;19;152052;-57
2022/09/29 01:09:17;;;;;;;;;;;;;;;21.34;47.24;99754.00;7284084;19;152629;-57
2022/09/29 01:11:44;;;;;;;;;;;;;;;21.34;47.65;99758.78;7286031;19;153522;-57
2022/09/29 01:14:11;;;;;;;;;;;;;;;21.33;47.54;99748.72;7282522;19;153612;-57
2022/09/29 01:16:38;;;;;;;;;;;;;;;21.31;47.79;99754.66;7284463;19;152351;-57
2022/09/29 01:19:07;;;;;;;;;;;;;;;21.30;47.58;99753.03;7284836;19;153187;-57
2022/09/29 01:21:37;;;;;;;;;;;;;;;21.27;47.60;99746.09;7280351;19;153765;-57
2022/09/29 01:24:22;;;;;;;;;;;;;;;21.26;47.51;99749.25;7283619;19;152696;-57
2022/09/29 01:26:54;;;;;;;;;;;;;;;21.24;47.87;99743.16;7290150;19;153505;-57
2022/09/29 01:29:24;;;;;;;;;;;;;;;21.23;47.95;99752.75;7284156;19;152362;-59
2022/09/29 01:31:58;;;;;;;;;;;;;;;21.21;47.70;99741.84;7285348;19;152814;-57
2022/09/29 01:34:40;;;;;;;;;;;;;;;21.18;48.06;99748.16;7281370;19;153392;-57
2022/09/29 01:37:25;;;;;;;;;;;;;;;21.16;48.31;99750.50;7283432;19;151867;-57
2022/09/29 01:40:03;;;;;;;;;;;;;;;21.15;48.15;99750.84;7283373;19;153106;-57
2022/09/29 01:42:35;;;;;;;;;;;;;;;21.13;48.01;99748.38;7283279;19;154219;-56
2022/09/29 01:45:12;;;;;;;;;;;;;;;21.12;48.48;99743.06;7284569;19;152265;-57
2022/09/29 01:47:41;;;;;;;;;;;;;;;21.11;48.30;99745.06;7283082;19;153858;-56
2022/09/29 01:50:17;;;;;;;;;;;;;;;21.10;48.24;99743.41;7291077;19;152903;-57
2022/09/29 01:52:47;;;;;;;;;;;;;;;21.08;48.43;99744.91;7284307;19;153385;-57
2022/09/29 01:55:18;;;;;;;;;;;;;;;21.07;48.30;99741.28;7281197;19;154376;-57
2022/09/29 01:57:44;;;;;;;;;;;;;;;21.04;48.13;99741.13;7283427;19;152289;-57
2022/09/29 02:00:13;;;;;;;;;;;;;;;21.03;48.17;99745.91;7281853;19;154978;-57
2022/09/29 02:02:43;;;;;;;;;;;;;;;21.03;48.43;99742.31;7279740;19;153853;-57
2022/09/29 02:05:16;;;;;;;;;;;;;;;21.00;48.65;99735.38;7282837;19;152300;-57
2022/09/29 02:07:45;;;;;;;;;;;;;;;20.99;48.55;99742.16;7282578;19;153454;-57
2022/09/29 02:10:24;;;;;;;;;;;;;;;20.98;48.40;99742.50;7280680;19;152651;-56
2022/09/29 02:12:52;;;;;;;;;;;;;;;20.98;48.36;99748.94;7291913;19;154511;-57
2022/09/29 02:15:22;;;;;;;;;;;;;;;20.95;48.91;99749.63;7280741;19;153430;-56
2022/09/29 02:17:49;;;;;;;;;;;;;;;20.95;48.97;99748.78;7282715;19;152530;-56
2022/09/29 02:20:17;;;;;;;;;;;;;;;20.94;49.00;99753.56;7281061;19;154368;-56
2022/09/29 02:22:44;;;;;;;;;;;;;;;20.94;48.72;99747.16;7281787;19;153417;-57
2022/09/29 02:25:12;;;;;;;;;;;;;;;20.90;48.84;99752.63;7281496;19;153278;-56
2022/09/29 02:27:38;;;;;;;;;;;;;;;20.88;48.96;99751.31;7282911;19;153422;-57
2022/09/29 02:30:05;;;;;;;;;;;;;;;20.86;48.85;99743.22;7279803;19;153693;-57
2022/09/29 02:32:33;;;;;;;;;;;;;;;20.84;49.20;99751.19;7282351;19;152397;-56
2022/09/29 02:35:02;;;;;;;;;;;;;;;20.83;49.38;99753.16;7288238;19;153562;-57
2022/09/29 02:37:40;;;;;;;;;;;;;;;20.84;48.88;99745.56;7279881;19;151959;-57
2022/09/29 02:40:12;;;;;;;;;;;;;;;20.82;49.08;99751.53;7281722;19;153449;-57
2022/09/29 02:43:05;;;;;;;;;;;;;;;20.82;49.37;99748.72;7279981;19;154099;-56
2022/09/29 02:45:35;;;;;;;;;;;;;;;20.80;49.29;99748.22;7279553;19;152332;-56
2022/09/29 02:48:12;;;;;;;;;;;;;;;20.81;49.04;99749.03;7282503;19;153246;-58
2022/09/29 02:50:53;;;;;;;;;;;;;;;20.78;49.61;99746.91;7278433;19;152358;-58
2022/09/29 02:53:34;;;;;;;;;;;;;;;20.75;49.40;99742.81;7282181;19;152558;-59
2022/09/29 02:56:03;;;;;;;;;;;;;;;20.73;49.59;99747.94;7282107;19;153526;-58
2022/09/29 02:58:45;;;;;;;;;;;;;;;20.73;49.85;99744.31;7287535;19;153493;-58
2022/09/29 03:01:15;;;;;;;;;;;;;;;20.73;49.63;99745.13;7278773;19;153624;-58
2022/09/29 03:03:42;;;;;;;;;;;;;;;20.71;49.73;99743.84;7280145;19;154369;-58
2022/09/29 03:06:10;;;;;;;;;;;;;;;20.70;49.67;99745.81;7282262;19;152406;-58
2022/09/29 03:08:36;;;;;;;;;;;;;;;20.71;49.43;99753.09;7279179;19;152806;-59
2022/09/29 03:11:03;;;;;;;;;;;;;;;20.70;49.25;99745.81;7278965;19;154488;-59
2022/09/29 03:13:37;;;;;;;;;;;;;;;20.69;49.58;99744.16;7279691;19;152928;-58
2022/09/29 03:16:07;;;;;;;;;;;;;;;20.68;49.39;99739.72;7280847;19;152280;-58
2022/09/29 03:18:34;;;;;;;;;;;;;;;20.67;49.56;99746.47;7278525;19;154100;-58
2022/09/29 03:21:00;;;;;;;;;;;;;;;20.66;49.41;99741.22;7285920;19;153432;-58
2022/09/29 03:23:34;;;;;;;;;;;;;;;20.66;49.58;99732.81;7278947;19;154328;-58
2022/09/29 03:26:01;;;;;;;;;;;;;;;20.65;49.46;99740.41;7281712;19;151724;-58
2022/09/29 03:28:27;;;;;;;;;;;;;;;20.64;49.39;99737.91;7279325;19;154205;-59
2022/09/29 03:30:54;;;;;;;;;;;;;;;20.62;49.35;99740.25;7280208;19;153344;-58
2022/09/29 03:33:21;;;;;;;;;;;;;;;20.60;49.37;99737.78;7280375;19;152142;-58
2022/09/29 03:35:47;;;;;;;;;;;;;;;20.59;49.67;99744.53;7279884;19;153074;-58
2022/09/29 03:38:14;;;;;;;;;;;;;;;20.57;49.32;99738.47;7279092;19;154367;-58
2022/09/29 03:40:41;;;;;;;;;;;;;;;20.56;49.39;99745.22;7287885;19;151948;-57
2022/09/29 03:43:07;;;;;;;;;;;;;;;20.55;49.57;99751.16;7280450;19;153286;-58
2022/09/29 03:45:34;;;;;;;;;;;;;;;20.53;49.58;99745.91;7279265;19;152195;-58
2022/09/29 03:48:01;;;;;;;;;;;;;;;20.52;49.55;99749.88;7276540;19;153245;-58
2022/09/29 03:50:27;;;;;;;;;;;;;;;20.52;49.57;99744.25;7278475;19;154464;-57
2022/09/29 03:52:54;;;;;;;;;;;;;;;20.50;49.46;99740.97;7279185;19;152363;-58
2022/09/29 03:55:20;;;;;;;;;;;;;;;20.50;49.47;99749.38;7277673;19;153689;-58
2022/09/29 03:57:47;;;;;;;;;;;;;;;20.48;49.75;99748.91;7279578;19;153423;-59
2022/09/29 04:00:14;;;;;;;;;;;;;;;20.48;49.75;99750.88;7280536;19;155486;-59
2022/09/29 04:02:40;;;;;;;;;;;;;;;20.45;49.49;99743.94;7290611;19;152869;-60
2022/09/29 04:05:07;;;;;;;;;;;;;;;20.44;49.87;99745.13;7286331;19;152276;-58
2022/09/29 04:07:34;;;;;;;;;;;;;;;20.44;49.77;99755.53;7285754;19;153925;-59
2022/09/29 04:10:00;;;;;;;;;;;;;;;20.41;49.65;99759.81;7285536;19;153598;-59
2022/09/29 04:12:27;;;;;;;;;;;;;;;20.42;49.66;99767.09;7284900;19;152623;-59
2022/09/29 04:14:54;;;;;;;;;;;;;;;20.40;49.81;99766.59;7285437;19;153593;-58
2022/09/29 04:17:20;;;;;;;;;;;;;;;20.39;49.93;99776.19;7284152;19;153376;-59
2022/09/29 04:19:47;;;;;;;;;;;;;;;20.37;49.89;99767.25;7285602;19;151871;-59
2022/09/29 04:22:16;;;;;;;;;;;;;;;20.36;49.98;99779.63;7284457;19;153321;-58
2022/09/29 04:24:44;;;;;;;;;;;;;;;20.35;49.58;99775.22;7292130;19;153669;-58
2022/09/29 04:27:10;;;;;;;;;;;;;;;20.35;49.79;99784.41;7285624;19;153290;-58
2022/09/29 04:29:37;;;;;;;;;;;;;;;20.31;49.68;99783.44;7284371;19;153227;-58
2022/09/29 04:32:05;;;;;;;;;;;;;;;20.32;49.95;99787.09;7285224;19;154246;-58
2022/09/29 04:34:32;;;;;;;;;;;;;;;20.30;49.69;99787.44;7284742;19;152814;-58
2022/09/29 04:36:58;;;;;;;;;;;;;;;20.29;49.88;99782.94;7283944;19;152329;-58
2022/09/29 04:39:25;;;;;;;;;;;;;;;20.26;49.98;99780.78;7284930;19;152376;-57
2022/09/29 04:41:52;;;;;;;;;;;;;;;20.27;49.75;99787.22;7284411;19;152639;-57
2022/09/29 04:44:23;;;;;;;;;;;;;;;20.25;50.30;99786.75;7283895;19;154147;-58
2022/09/29 04:46:50;;;;;;;;;;;;;;;20.25;50.16;99783.94;7292377;19;152266;-57
2022/09/29 04:49:17;;;;;;;;;;;;;;;20.23;50.32;99798.31;7282857;19;154011;-57
2022/09/29 04:51:44;;;;;;;;;;;;;;;20.22;49.93;99795.81;7285243;19;153910;-57
2022/09/29 04:54:12;;;;;;;;;;;;;;;20.20;50.05;99803.75;7284269;19;152760;-57
2022/09/29 04:56:38;;;;;;;;;;;;;;;20.19;50.37;99800.13;7284341;19;153764;-57
2022/09/29 04:59:05;;;;;;;;;;;;;;;20.18;50.37;99803.25;7284660;19;153220;-57
2022/09/29 05:01:32;;;;;;;;;;;;;;;20.16;50.08;99800.81;7282777;19;153351;-57
2022/09/29 05:03:58;;;;;;;;;;;;;;;20.16;50.17;99803.63;7280254;19;154405;-58
2022/09/29 05:06:25;;;;;;;;;;;;;;;20.15;50.10;99806.75;7285050;19;152045;-57
2022/09/29 05:08:51;;;;;;;;;;;;;;;20.13;50.25;99807.06;7290646;19;154113;-56
2022/09/29 05:11:19;;;;;;;;;;;;;;;20.13;50.33;99809.88;7285179;19;152532;-58
2022/09/29 05:13:47;;;;;;;;;;;;;;;20.15;50.75;99803.94;7283875;19;153470;-57
2022/09/29 05:16:14;;;;;;;;;;;;;;;20.21;51.42;99806.25;7283967;19;154284;-57
2022/09/29 05:18:41;;;;;;;;;;;;;;;20.24;51.32;99807.53;7282248;19;152594;-57
2022/09/29 05:21:08;;;;;;;;;;;;;;;20.25;51.33;99800.78;7284382;19;153460;-57
2022/09/29 05:23:54;;;;;;;;;;;;;;;20.29;52.06;99815.78;7281977;19;153541;-57
2022/09/29 05:26:20;;;;;;;;;;;;;;;20.32;51.72;99809.53;7283173;19;152373;-57
2022/09/29 05:28:47;;;;;;;;;;;;;;;20.36;52.08;99804.88;7281759;19;153157;-56
2022/09/29 05:31:14;;;;;;;;;;;;;;;20.39;52.04;99807.88;7289950;19;153282;-56
2022/09/29 05:33:41;;;;;;;;;;;;;;;20.44;52.53;99812.47;7282562;19;152994;-57
2022/09/29 05:36:09;;;;;;;;;;;;;;;20.49;52.47;99817.88;7284241;19;153934;-56
2022/09/29 05:38:36;;;;;;;;;;;;;;;20.53;52.65;99824.50;7282727;19;154046;-56
2022/09/29 05:41:06;;;;;;;;;;;;;;;20.58;52.62;99818.66;7285190;19;153071;-57
2022/09/29 05:43:43;;;;;;;;;;;;;;;20.63;52.52;99821.28;7282089;19;154769;-57
2022/09/29 05:46:10;;;;;;;;;;;;;;;20.69;52.81;99824.75;7284366;19;152318;-57
2022/09/29 05:48:36;;;;;;;;;;;;;;;20.73;52.44;99825.72;7283025;19;152626;-56
2022/09/29 05:51:08;;;;;;;;;;;;;;;20.77;52.49;99824.69;7290409;19;153660;-57
2022/09/29 05:53:37;;;;;;;;;;;;;;;20.82;52.03;99820.88;7283243;19;153339;-57
2022/09/29 05:56:05;;;;;;;;;;;;;;;20.85;52.36;99823.81;7282669;19;153368;-56
2022/09/29 05:58:32;;;;;;;;;;;;;;;20.91;52.15;99827.28;7283320;19;152148;-57
2022/09/29 06:00:58;;;;;;;;;;;;;;;20.95;51.83;99835.84;7280461;19;153748;-56
2022/09/29 06:03:25;;;;;;;;;;;;;;;20.98;52.06;99836.00;7277579;19;153804;-56
2022/09/29 06:05:52;;;;;;;;;;;;;;;21.03;51.86;99835.78;7282822;19;151896;-59
2022/09/29 06:08:18;;;;;;;;;;;;;;;21.07;51.83;99841.56;7283204;19;153287;-56
2022/09/29 06:10:45;;;;;;;;;;;;;;;21.11;51.57;99842.53;7280768;19;153266;-57
2022/09/29 06:13:11;;;;;;;;;;;;;;;21.13;51.73;99852.28;7292244;19;151794;-57
2022/09/29 06:15:38;;;;;;;;;;;;;;;21.16;51.32;99848.81;7280910;19;153743;-57
2022/09/29 06:18:05;;;;;;;;;;;;;;;21.19;51.22;99852.94;7283860;19;151800;-58
2022/09/29 06:20:37;;;;;;;;;;;;;;;21.21;51.29;99850.59;7282091;19;153236;-57
2022/09/29 06:23:03;;;;;;;;;;;;;;;21.26;51.84;99850.38;7278996;19;154138;-57
2022/09/29 06:25:30;;;;;;;;;;;;;;;21.27;51.13;99850.06;7280535;19;153551;-57
2022/09/29 06:27:56;;;;;;;;;;;;;;;21.29;51.45;99853.38;7283460;19;153655;-58
2022/09/29 06:30:23;;;;;;;;;;;;;;;21.33;51.15;99850.69;7280621;19;153396;-58
2022/09/29 06:32:50;;;;;;;;;;;;;;;21.34;51.02;99857.97;7282349;19;152859;-58
2022/09/29 06:38:02;;;;;;;;;;;;;;;21.37;50.70;99859.25;7282403;19;152279;-57
2022/09/29 06:40:28;;;;;;;;;;;;;;;21.38;50.57;99867.34;7280766;19;153586;-57
2022/09/29 06:42:55;;;;;;;;;;;;;;;21.39;50.23;99869.00;7280531;19;153686;-57
2022/09/29 06:45:22;;;;;;;;;;;;;;;21.41;50.65;99874.25;7281170;19;154594;-58
2022/09/29 06:47:48;;;;;;;;;;;;;;;21.40;50.19;99873.44;7280326;19;152327;-58
2022/09/29 06:50:15;;;;;;;;;;;;;;;21.41;50.38;99882.69;7280292;19;154899;-57
2022/09/29 06:52:49;;;;;;;;;;;;;;;21.41;50.08;99883.53;7281757;19;152298;-57
2022/09/29 06:55:29;;;;;;;;;;;;;;;21.42;49.99;99887.16;7279979;19;153201;-57
2022/09/29 06:57:56;;;;;;;;;;;;;;;21.42;49.97;99887.16;7288131;19;153563;-56
2022/09/29 07:00:29;;;;;;;;;;;;;;;21.42;50.20;99895.59;7280089;19;153445;-56
2022/09/29 07:02:56;;;;;;;;;;;;;;;21.42;49.88;99892.78;7278559;19;153755;-57
2022/09/29 07:05:22;;;;;;;;;;;;;;;21.42;49.74;99895.59;7281562;19;152816;-57
2022/09/29 07:07:49;;;;;;;;;;;;;;;21.41;49.69;99896.75;7281259;19;153456;-58
2022/09/29 07:10:20;;;;;;;;;;;;;;;21.41;49.70;99900.38;7279264;19;153593;-59
2022/09/29 07:12:46;;;;;;;;;;;;;;;21.40;49.82;99895.09;7281405;19;152093;-58
2022/09/29 07:15:13;;;;;;;;;;;;;;;21.40;49.49;99893.09;7280616;19;152248;-56
2022/09/29 07:17:40;;;;;;;;;;;;;;;21.42;49.55;99896.41;7279041;19;153656;-57
2022/09/29 07:20:07;;;;;;;;;;;;;;;21.42;49.38;99895.59;7288703;19;152000;-57
2022/09/29 07:22:34;;;;;;;;;;;;;;;21.41;49.34;99893.94;7278897;19;155035;-58
2022/09/29 07:25:01;;;;;;;;;;;;;;;21.43;49.84;99889.63;7279430;19;152358;-57
2022/09/29 07:27:28;;;;;;;;;;;;;;;21.41;49.18;99905.19;7279048;19;152680;-57
2022/09/29 07:29:55;;;;;;;;;;;;;;;21.40;49.74;99903.53;7278088;19;154267;-57
2022/09/29 07:32:31;;;;;;;;;;;;;;;21.39;49.35;99901.91;7280486;19;153298;-57
2022/09/29 07:34:58;;;;;;;;;;;;;;;21.39;49.35;99907.53;7281736;19;152817;-57
2022/09/29 07:37:26;;;;;;;;;;;;;;;21.40;49.94;99912.78;7284745;19;152854;-58
2022/09/29 07:39:53;;;;;;;;;;;;;;;21.43;50.51;99909.31;7293250;19;151956;-58
2022/09/29 07:42:20;;;;;;;;;;;;;;;21.46;50.73;99907.78;7286192;19;153711;-58
2022/09/29 07:44:47;;;;;;;;;;;;;;;21.48;50.82;99909.13;7287516;19;152151;-58
2022/09/29 07:47:17;;;;;;;;;;;;;;;21.50;50.82;99903.97;7288089;19;153348;-58
2022/09/29 07:49:45;;;;;;;;;;;;;;;21.53;50.66;99900.47;7285872;19;153352;-58
2022/09/29 07:52:12;;;;;;;;;;;;;;;21.57;50.85;99906.25;7288170;19;152326;-58
2022/09/29 07:54:38;;;;;;;;;;;;;;;21.59;50.90;99918.78;7286587;19;152678;-59
2022/09/29 07:57:05;;;;;;;;;;;;;;;21.62;50.51;99906.84;7286351;19;154550;-57
2022/09/29 07:59:32;;;;;;;;;;;;;;;21.64;50.59;99907.34;7287153;19;152293;-57
2022/09/29 08:01:58;;;;;;;;;;;;;;;21.66;50.42;99915.44;7290921;19;153446;-57
2022/09/29 08:04:25;;;;;;;;;;;;;;;21.69;50.34;99920.38;7284589;19;152469;-57
2022/09/29 08:06:52;;;;;;;;;;;;;;;21.71;50.13;99921.66;7287758;19;152720;-57
2022/09/29 08:09:19;;;;;;;;;;;;;;;21.72;50.04;99926.13;7283319;19;153295;-57
2022/09/29 08:11:52;;;;;;;;;;;;;;;21.75;49.95;99930.28;7287176;19;153474;-57
2022/09/29 08:14:32;;;;;;;;;;;;;;;21.77;49.90;99941.16;7284969;19;154078;-57
2022/09/29 08:16:59;;;;;;;;;;;;;;;21.79;50.47;99947.28;7286489;19;153463;-57
2022/09/29 08:19:27;;;;;;;;;;;;;;;21.80;49.98;99944.13;7284906;19;153612;-56
2022/09/29 08:21:54;;;;;;;;;;;;;;;21.81;50.29;99959.00;7287549;19;153808;-56
2022/09/29 08:24:20;;;;;;;;;;;;;;;21.82;50.23;99963.44;7289201;19;154565;-57
2022/09/29 08:26:47;;;;;;;;;;;;;;;21.83;49.98;99965.09;7287120;19;153584;-57
2022/09/29 08:29:14;;;;;;;;;;;;;;;21.83;49.99;99960.31;7282858;19;152622;-58
2022/09/29 08:31:43;;;;;;;;;;;;;;;21.84;50.07;99966.75;7286564;19;153519;-57
2022/09/29 08:34:10;;;;;;;;;;;;;;;21.84;49.79;99966.75;7282008;19;153863;-57
2022/09/29 08:36:36;;;;;;;;;;;;;;;21.84;49.63;99969.56;7284757;19;154280;-56
2022/09/29 08:39:03;;;;;;;;;;;;;;;21.84;49.72;99969.56;7284532;19;152119;-57
2022/09/29 08:41:32;;;;;;;;;;;;;;;21.83;49.66;99973.53;7287010;19;152793;-57
2022/09/29 08:44:05;;;;;;;;;;;;;;;21.84;50.02;99976.03;7280380;19;154102;-57
2022/09/29 08:46:37;;;;;;;;;;;;;;;21.85;50.00;99988.91;7292115;19;152258;-57
2022/09/29 08:49:10;;;;;;;;;;;;;;;21.85;49.66;99988.91;7283529;19;154298;-57
2022/09/29 08:51:39;;;;;;;;;;;;;;;21.85;49.53;99988.09;7283203;19;152684;-57
2022/09/29 08:54:30;;;;;;;;;;;;;;;21.86;49.49;99989.72;7283805;19;153734;-57
2022/09/29 08:57:05;;;;;;;;;;;;;;;21.84;49.57;99990.09;7284870;19;154206;-57
2022/09/29 08:59:32;;;;;;;;;;;;;;;21.85;49.50;99999.34;7283979;19;152129;-57
2022/09/29 09:02:02;;;;;;;;;;;;;;;21.85;49.58;100000.16;7283256;19;153645;-57
2022/09/29 09:04:47;;;;;;;;;;;;;;;21.83;49.77;100010.94;7280295;19;154647;-57
2022/09/29 09:07:26;;;;;;;;;;;;;;;21.85;49.59;100019.03;7282924;19;152952;-57
2022/09/29 09:10:02;;;;;;;;;;;;;;;21.84;49.77;100017.38;7291733;19;153005;-57
2022/09/29 09:12:34;;;;;;;;;;;;;;;21.84;49.82;100026.66;7285107;19;152758;-57
2022/09/29 09:15:05;;;;;;;;;;;;;;;21.83;49.98;100024.16;7284736;19;152752;-58
2022/09/29 09:17:58;;;;;;;;;;;;;;;21.83;50.09;100029.78;7281449;19;153799;-57
2022/09/29 09:20:33;;;;;;;;;;;;;;;21.81;50.05;100026.47;7282657;19;152369;-58
2022/09/29 09:23:19;;;;;;;;;;;;;;;21.82;49.88;100033.75;7284774;19;155077;-58
2022/09/29 09:25:50;;;;;;;;;;;;;;;21.80;49.77;100036.94;7282139;19;154489;-57
2022/09/29 09:28:20;;;;;;;;;;;;;;;21.83;50.66;100035.41;7283137;19;152141;-58
2022/09/29 09:30:52;;;;;;;;;;;;;;;21.87;49.09;100048.44;7214420;19;155254;-55
2022/09/29 09:33:43;;;;;;;;;;;;;;;21.86;49.04;100045.97;7261202;19;154020;-55
2022/09/29 09:36:17;;;;;;;;;;;;;;;21.83;48.70;100046.66;7274865;19;152737;-55
2022/09/29 09:39:01;;;;;;;;;;;;;;;21.81;48.21;100051.78;7275717;19;155949;-54
2022/09/29 09:41:29;;;;;;;;;;;;;;;21.79;48.21;100056.94;7280548;19;153036;-54
2022/09/29 09:44:19;;;;;;;;;;;;;;;21.76;47.52;100052.78;7276007;19;153806;-55
2022/09/29 09:46:52;;;;;;;;;;;;;;;21.72;47.54;100060.25;7277640;19;154146;-54
2022/09/29 09:49:24;;;;;;;;;;;;;;;21.69;47.04;100064.59;7278882;19;152324;-55
2022/09/29 09:51:51;;;;;;;;;;;;;;;21.66;47.04;100056.84;7278217;19;153968;-54
2022/09/29 09:54:41;;;;;;;;;;;;;;;21.65;47.21;100065.59;7285004;19;153804;-54
2022/09/29 09:57:30;;;;;;;;;;;;;;;21.62;47.58;100061.47;7273324;19;152739;-54
2022/09/29 09:59:57;;;;;;;;;;;;;;;21.61;47.29;100070.25;7276453;19;155203;-54
2022/09/29 10:02:25;;;;;;;;;;;;;;;21.60;47.57;100072.25;7279182;19;151792;-54
2022/09/29 10:04:56;;;;;;;;;;;;;;;21.60;47.98;100077.03;7272366;19;152778;-54
2022/09/29 10:07:26;;;;;;;;;;;;;;;21.60;47.87;100058.19;7277380;19;153542;-54
2022/09/29 10:09:58;;;;;;;;;;;;;;;21.60;47.95;100065.78;7277913;19;152544;-54
2022/09/29 10:12:27;;;;;;;;;;;;;;;21.62;48.20;100074.72;7276987;19;152354;-55
2022/09/29 10:15:04;;;;;;;;;;;;;;;21.64;47.97;100072.38;7276536;19;154434;-54
2022/09/29 10:17:35;;;;;;;;;;;;;;;21.64;47.94;100072.38;7285645;19;154786;-55
2022/09/29 10:20:04;;;;;;;;;;;;;;;21.68;47.92;100081.78;7277267;19;153971;-55
2022/09/29 10:22:31;;;;;;;;;;;;;;;21.69;47.97;100078.66;7277600;19;152440;-55
2022/09/29 10:25:04;;;;;;;;;;;;;;;21.70;47.32;100082.28;7279361;19;153527;-55
2022/09/29 10:27:31;;;;;;;;;;;;;;;21.71;47.50;100087.56;7281022;19;153570;-55
2022/09/29 10:29:59;;;;;;;;;;;;;;;21.74;47.44;100088.88;7281673;19;152357;-55
2022/09/29 10:32:38;;;;;;;;;;;;;;;21.76;47.71;100091.38;7274882;19;152502;-55
2022/09/29 10:35:13;;;;;;;;;;;;;;;21.76;47.70;100103.41;7274978;19;153757;-55
2022/09/29 10:37:42;;;;;;;;;;;;;;;21.78;47.55;100097.47;7281914;19;153161;-55
2022/09/29 10:40:09;;;;;;;;;;;;;;;21.78;47.53;100106.72;7287588;19;152853;-55
2022/09/29 10:42:36;;;;;;;;;;;;;;;21.78;47.34;100094.66;7281918;19;151654;-55
2022/09/29 10:45:17;;;;;;;;;;;;;;;21.79;47.20;100101.94;7277389;19;153026;-55
2022/09/29 10:47:56;;;;;;;;;;;;;;;21.80;47.15;100104.41;7279514;19;153234;-55
2022/09/29 10:50:23;;;;;;;;;;;;;;;21.81;46.99;100099.59;7281249;19;151588;-55
2022/09/29 10:52:54;;;;;;;;;;;;;;;21.81;47.03;100116.47;7280641;19;153019;-55
2022/09/29 10:55:31;;;;;;;;;;;;;;;21.81;46.96;100116.47;7279349;19;154419;-55
2022/09/29 10:58:03;;;;;;;;;;;;;;;21.80;46.50;100120.47;7281619;19;152488;-54
2022/09/29 11:00:37;;;;;;;;;;;;;;;21.79;46.72;100118.81;7279767;19;153656;-54
2022/09/29 11:03:04;;;;;;;;;;;;;;;21.80;46.64;100123.28;7288755;19;153857;-54
2022/09/29 11:05:31;;;;;;;;;;;;;;;21.79;46.78;100125.25;7278995;19;152713;-55
2022/09/29 11:08:15;;;;;;;;;;;;;;;21.79;46.58;100124.44;7280514;19;155099;-55
2022/09/29 11:10:48;;;;;;;;;;;;;;;21.80;46.52;100132.53;7278287;19;151839;-55
2022/09/29 11:13:17;;;;;;;;;;;;;;;21.81;46.92;100131.34;7281369;19;154240;-55
2022/09/29 11:15:44;;;;;;;;;;;;;;;21.81;46.67;100133.34;7277061;19;154459;-55
2022/09/29 11:18:22;;;;;;;;;;;;;;;21.80;46.63;100129.72;7280963;19;152645;-55
2022/09/29 11:20:51;;;;;;;;;;;;;;;21.79;46.72;100132.88;7280797;19;153012;-55
2022/09/29 11:23:25;;;;;;;;;;;;;;;21.81;46.33;100144.56;7279257;19;154065;-54
2022/09/29 11:25:57;;;;;;;;;;;;;;;21.78;46.49;100136.81;7286527;19;153685;-55
2022/09/29 11:28:27;;;;;;;;;;;;;;;21.80;46.29;100146.59;7278692;19;153336;-55
2022/09/29 11:31:08;;;;;;;;;;;;;;;21.84;46.34;100143.94;7277107;19;152771;-55
2022/09/29 11:33:47;;;;;;;;;;;;;;;21.82;46.27;100149.88;7274458;19;153758;-54
2022/09/29 11:36:43;;;;;;;;;;;;;;;21.81;46.50;100148.22;7271330;19;153382;-55
2022/09/29 11:39:10;;;;;;;;;;;;;;;21.84;46.62;100156.00;7275630;19;153547;-54
2022/09/29 11:41:39;;;;;;;;;;;;;;;21.83;46.23;100157.16;7278130;19;153550;-55
2022/09/29 11:44:28;;;;;;;;;;;;;;;21.84;46.16;100156.00;7271820;19;154427;-55
2022/09/29 11:47:02;;;;;;;;;;;;;;;21.86;46.22;100161.28;7275230;19;152462;-56
2022/09/29 11:49:41;;;;;;;;;;;;;;;21.83;46.46;100162.78;7280801;19;153324;-55
2022/09/29 11:52:10;;;;;;;;;;;;;;;21.82;46.14;100172.38;7275393;19;153414;-55
2022/09/29 11:54:51;;;;;;;;;;;;;;;21.77;46.37;100168.91;7274739;19;152995;-55
2022/09/29 11:57:27;;;;;;;;;;;;;;;21.78;46.36;100177.03;7274484;19;153558;-55
2022/09/29 12:00:06;;;;;;;;;;;;;;;21.73;46.10;100180.84;7274959;19;152246;-55
2022/09/29 12:02:56;;;;;;;;;;;;;;;21.73;46.05;100182.81;7276019;19;153410;-55
2022/09/29 12:05:34;;;;;;;;;;;;;;;21.70;46.48;100173.09;7269949;19;155316;-54
2022/09/29 12:08:21;;;;;;;;;;;;;;;21.69;46.25;100176.22;7274197;19;152835;-55
2022/09/29 12:11:06;;;;;;;;;;;;;;;21.71;46.33;100185.97;7281532;19;152876;-55
2022/09/29 12:14:12;;;;;;;;;;;;;;;21.74;46.64;100185.31;7270886;19;153816;-55
2022/09/29 12:16:43;;;;;;;;;;;;;;;21.78;46.18;100187.44;7274167;19;151994;-55
2022/09/29 12:19:12;;;;;;;;;;;;;;;21.79;46.45;100183.47;7270888;19;152699;-55
2022/09/29 12:21:45;;;;;;;;;;;;;;;21.78;46.35;100188.28;7275604;19;152508;-55
2022/09/29 12:24:17;;;;;;;;;;;;;;;21.79;46.24;100184.31;7278614;19;153441;-55
2022/09/29 12:26:47;;;;;;;;;;;;;;;21.80;46.27;100174.72;7280007;19;154204;-55
2022/09/29 12:29:19;;;;;;;;;;;;;;;21.80;46.43;100188.78;7279224;19;153764;-55
2022/09/29 12:31:48;;;;;;;;;;;;;;;21.80;46.30;100180.34;7281256;19;152756;-55
2022/09/29 12:34:17;;;;;;;;;;;;;;;21.75;46.60;100174.91;7282743;19;153469;-55
2022/09/29 12:37:04;;;;;;;;;;;;;;;21.78;46.53;100181.81;7271661;19;154603;-55
2022/09/29 12:39:46;;;;;;;;;;;;;;;21.77;46.53;100177.34;7281752;19;152649;-55
2022/09/29 12:42:13;;;;;;;;;;;;;;;21.76;46.74;100179.34;7284880;19;152145;-55
2022/09/29 12:44:43;;;;;;;;;;;;;;;21.76;46.36;100184.16;7283349;19;154205;-55
2022/09/29 12:47:16;;;;;;;;;;;;;;;21.78;46.83;100179.00;7283588;19;153078;-55
2022/09/29 12:49:57;;;;;;;;;;;;;;;21.78;46.42;100179.00;7280570;19;151938;-55
2022/09/29 12:52:28;;;;;;;;;;;;;;;21.68;46.31;100183.84;7284884;19;152535;-54
2022/09/29 12:54:58;;;;;;;;;;;;;;;21.61;45.60;100182.69;7281795;19;154030;-54